createdAt,value
2022-08-22T00:02:09.960Z,5.32
2022-08-22T00:03:08.633Z,5.07
2022-08-22T00:04:50.735Z,6.35
2022-08-22T00:07:42.327Z,5.80
2022-08-22T00:10:25.586Z,5.57
2022-08-22T00:13:07.316Z,5.80
2022-08-22T00:15:47.447Z,5.10
2022-08-22T00:18:36.811Z,5.35
2022-08-22T00:21:16.861Z,5.75
2022-08-22T00:24:20.910Z,5.40
2022-08-22T00:27:02.078Z,5.88
2022-08-22T00:29:51.274Z,4.90
2022-08-22T00:32:25.390Z,5.18
2022-08-22T00:35:30.008Z,5.40
2022-08-22T00:38:03.158Z,5.13
2022-08-22T00:41:17.240Z,5.70
2022-08-22T00:44:04.825Z,5.30
2022-08-22T00:47:02.614Z,6.07
2022-08-22T00:49:52.950Z,5.45
2022-08-22T00:52:30.521Z,5.10
2022-08-22T00:55:09.005Z,5.32
2022-08-22T00:57:41.856Z,5.35
2022-08-22T01:00:20.798Z,5.35
2022-08-22T01:03:16.398Z,4.80
2022-08-22T01:05:49.124Z,6.18
2022-08-22T01:08:22.231Z,5.25
2022-08-22T01:11:10.686Z,5.50
2022-08-22T01:13:58.747Z,5.28
2022-08-22T01:16:34.528Z,5.28
2022-08-22T01:19:20.961Z,5.35
2022-08-22T01:22:12.317Z,4.93
2022-08-22T01:25:09.463Z,5.10
2022-08-22T01:28:10.141Z,5.32
2022-08-22T01:33:32.467Z,5.82
2022-08-22T01:36:27.105Z,5.07
2022-08-22T01:39:03.387Z,4.97
2022-08-22T01:41:39.144Z,5.30
2022-08-22T01:44:18.065Z,4.72
2022-08-22T01:47:00.863Z,5.63
2022-08-22T01:52:09.923Z,4.90
2022-08-22T01:55:01.105Z,4.60
2022-08-22T01:57:28.421Z,6.07
2022-08-22T02:00:04.039Z,5.03
2022-08-22T02:03:08.042Z,5.25
2022-08-22T02:05:54.178Z,4.90
2022-08-22T02:08:53.387Z,5.70
2022-08-22T02:11:45.177Z,5.85
2022-08-22T02:14:17.816Z,5.22
2022-08-22T02:16:58.137Z,5.38
2022-08-22T02:19:35.064Z,6.28
2022-08-22T02:22:07.241Z,5.20
2022-08-22T02:24:34.121Z,4.80
2022-08-22T02:27:10.481Z,4.78
2022-08-22T02:30:06.671Z,5.00
2022-08-22T02:32:42.362Z,5.15
2022-08-22T02:35:28.022Z,5.45
2022-08-22T02:38:16.818Z,5.32
2022-08-22T02:41:08.808Z,5.20
2022-08-22T02:43:52.486Z,5.72
2022-08-22T02:46:25.941Z,5.10
2022-08-22T02:49:04.535Z,5.40
2022-08-22T02:51:43.199Z,5.38
2022-08-22T02:54:48.437Z,5.35
2022-08-22T02:57:39.544Z,4.93
2022-08-22T03:00:32.743Z,5.55
2022-08-22T03:03:02.941Z,5.55
2022-08-22T03:05:38.977Z,5.28
2022-08-22T03:08:47.578Z,5.57
2022-08-22T03:11:32.147Z,5.63
2022-08-22T03:14:07.435Z,6.18
2022-08-22T03:16:45.896Z,6.38
2022-08-22T03:19:20.258Z,5.97
2022-08-22T03:21:59.079Z,6.15
2022-08-22T03:24:50.127Z,5.63
2022-08-22T03:27:33.070Z,6.03
2022-08-22T03:30:10.232Z,5.97
2022-08-22T03:33:20.713Z,5.43
2022-08-22T03:35:47.522Z,5.25
2022-08-22T03:38:26.280Z,4.93
2022-08-22T03:41:24.336Z,6.00
2022-08-22T03:44:15.069Z,5.40
2022-08-22T03:46:41.923Z,5.78
2022-08-22T03:49:33.513Z,5.60
2022-08-22T03:52:25.166Z,5.35
2022-08-22T03:55:07.797Z,5.25
2022-08-22T03:58:06.867Z,5.55
2022-08-22T04:01:07.744Z,4.78
2022-08-22T04:03:52.363Z,5.82
2022-08-22T04:06:26.317Z,6.03
2022-08-22T04:09:20.916Z,5.80
2022-08-22T04:11:56.790Z,5.65
2022-08-22T04:14:58.074Z,6.40
2022-08-22T04:20:25.496Z,6.00
2022-08-22T04:23:23.098Z,5.95
2022-08-22T04:25:58.706Z,6.10
2022-08-22T04:28:39.846Z,6.25
2022-08-22T04:31:12.136Z,6.30
2022-08-22T04:33:46.317Z,6.40
2022-08-22T04:36:15.981Z,6.85
2022-08-22T04:38:48.811Z,6.28
2022-08-22T04:41:29.676Z,6.53
2022-08-22T04:44:03.753Z,6.43
2022-08-22T04:46:57.541Z,7.15
2022-08-22T04:49:57.124Z,6.47
2022-08-22T04:52:29.540Z,6.50
2022-08-22T04:55:24.397Z,7.80
2022-08-22T04:58:28.685Z,5.95
2022-08-22T05:01:04.519Z,6.90
2022-08-22T05:03:35.905Z,6.40
2022-08-22T05:06:05.421Z,6.97
2022-08-22T05:08:39.593Z,6.15
2022-08-22T05:11:09.725Z,6.80
2022-08-22T05:13:57.459Z,6.85
2022-08-22T05:16:31.563Z,6.15
2022-08-22T05:19:03.345Z,6.85
2022-08-22T05:21:35.280Z,7.13
2022-08-22T05:24:08.022Z,7.10
2022-08-22T05:26:40.505Z,6.18
2022-08-22T05:29:11.166Z,6.80
2022-08-22T05:31:56.365Z,6.35
2022-08-22T05:34:27.095Z,6.05
2022-08-22T05:37:04.577Z,6.85
2022-08-22T05:39:37.917Z,7.43
2022-08-22T05:42:11.653Z,6.22
2022-08-22T05:44:39.367Z,6.75
2022-08-22T05:47:35.411Z,6.07
2022-08-22T05:50:05.158Z,6.10
2022-08-22T05:52:41.038Z,6.20
2022-08-22T05:55:22.324Z,7.40
2022-08-22T05:58:05.857Z,5.68
2022-08-22T06:00:38.807Z,5.50
2022-08-22T06:03:24.211Z,6.70
2022-08-22T06:05:56.129Z,7.03
2022-08-22T06:08:25.799Z,7.13
2022-08-22T06:10:59.902Z,5.88
2022-08-22T06:13:41.688Z,6.25
2022-08-22T06:16:21.455Z,6.25
2022-08-22T06:18:50.880Z,5.38
2022-08-22T06:21:39.236Z,5.85
2022-08-22T06:24:13.047Z,4.95
2022-08-22T06:26:48.323Z,5.35
2022-08-22T06:29:24.909Z,4.97
2022-08-22T06:31:52.028Z,4.50
2022-08-22T06:34:31.213Z,4.50
2022-08-22T06:37:02.190Z,4.60
2022-08-22T06:39:41.673Z,4.82
2022-08-22T06:42:17.156Z,4.25
2022-08-22T06:44:46.561Z,3.97
2022-08-22T06:47:23.497Z,5.18
2022-08-22T06:49:57.230Z,4.68
2022-08-22T06:52:27.236Z,5.40
2022-08-22T06:55:07.434Z,6.30
2022-08-22T06:57:53.687Z,7.03
2022-08-22T07:00:21.023Z,5.85
2022-08-22T07:03:01.870Z,5.45
2022-08-22T07:05:34.832Z,5.22
2022-08-22T07:08:07.667Z,5.13
2022-08-22T07:10:35.047Z,4.97
2022-08-22T07:13:04.555Z,4.95
2022-08-22T07:15:37.298Z,5.05
2022-08-22T07:18:19.682Z,4.20
2022-08-22T07:20:54.543Z,4.75
2022-08-22T07:23:40.606Z,3.72
2022-08-22T07:26:25.985Z,3.60
2022-08-22T07:28:59.351Z,3.40
2022-08-22T07:31:46.699Z,4.90
2022-08-22T07:34:18.592Z,4.20
2022-08-22T07:36:53.859Z,3.67
2022-08-22T07:39:33.649Z,4.57
2022-08-22T07:42:11.453Z,3.78
2022-08-22T07:45:05.370Z,2.92
2022-08-22T07:47:55.653Z,2.88
2022-08-22T07:50:28.661Z,2.80
2022-08-22T07:53:05.094Z,2.35
2022-08-22T07:58:06.124Z,1.80
2022-08-22T08:00:34.401Z,1.63
2022-08-22T08:03:07.384Z,2.22
2022-08-22T08:05:37.095Z,1.80
2022-08-22T08:08:15.577Z,1.30
2022-08-22T08:10:43.108Z,1.30
2022-08-22T08:13:14.527Z,1.45
2022-08-22T08:15:45.812Z,1.17
2022-08-22T08:18:19.467Z,2.53
2022-08-22T08:20:54.864Z,2.03
2022-08-22T08:23:23.581Z,2.58
2022-08-22T08:26:00.780Z,1.83
2022-08-22T08:28:34.754Z,2.03
2022-08-22T08:31:14.800Z,1.35
2022-08-22T08:33:45.310Z,1.60
2022-08-22T08:36:33.866Z,1.42
2022-08-22T08:39:12.549Z,1.83
2022-08-22T08:41:59.091Z,1.70
2022-08-22T08:44:47.181Z,1.33
2022-08-22T08:47:23.057Z,1.33
2022-08-22T08:50:14.419Z,1.80
2022-08-22T08:52:59.994Z,1.85
2022-08-22T08:55:26.891Z,1.58
2022-08-22T08:58:07.024Z,1.63
2022-08-22T09:00:48.984Z,2.15
2022-08-22T09:03:43.946Z,1.80
2022-08-22T09:06:42.616Z,1.52
2022-08-22T09:09:44.001Z,1.90
2022-08-22T09:12:33.782Z,1.65
2022-08-22T09:15:45.001Z,1.40
2022-08-22T09:18:59.445Z,1.52
2022-08-22T09:21:58.519Z,1.60
2022-08-22T09:24:37.585Z,1.40
2022-08-22T09:27:32.627Z,1.20
2022-08-22T09:30:11.636Z,1.42
2022-08-22T09:32:52.158Z,1.20
2022-08-22T09:35:25.705Z,1.42
2022-08-22T09:38:18.676Z,1.67
2022-08-22T09:40:50.174Z,1.83
2022-08-22T09:43:33.651Z,1.50
2022-08-22T09:46:12.704Z,1.50
2022-08-22T09:48:48.695Z,1.35
2022-08-22T09:51:52.945Z,1.92
2022-08-22T09:54:47.474Z,2.05
2022-08-22T10:00:13.678Z,1.75
2022-08-22T10:02:54.182Z,1.77
2022-08-22T10:05:40.871Z,1.75
2022-08-22T10:08:14.053Z,2.30
2022-08-22T10:10:51.476Z,2.60
2022-08-22T10:13:24.282Z,2.35
2022-08-22T10:16:01.873Z,1.88
2022-08-22T10:18:53.910Z,2.10
2022-08-22T10:22:00.568Z,1.90
2022-08-22T10:24:43.756Z,2.22
2022-08-22T10:27:28.971Z,2.38
2022-08-22T10:30:08.169Z,2.60
2022-08-22T10:33:13.878Z,1.98
2022-08-22T10:35:51.449Z,2.10
2022-08-22T10:38:29.417Z,3.17
2022-08-22T10:41:00.902Z,2.25
2022-08-22T10:43:56.529Z,2.25
2022-08-22T10:47:05.856Z,2.22
2022-08-22T10:49:51.282Z,2.20
2022-08-22T10:52:21.158Z,1.90
2022-08-22T10:54:54.912Z,3.28
2022-08-22T10:57:22.660Z,2.17
2022-08-22T11:00:00.891Z,2.45
2022-08-22T11:02:36.938Z,2.58
2022-08-22T11:05:34.317Z,2.85
2022-08-22T11:08:24.037Z,1.98
2022-08-22T11:11:32.462Z,1.77
2022-08-22T11:14:37.719Z,1.42
2022-08-22T11:17:34.598Z,1.77
2022-08-22T11:20:29.519Z,2.03
2022-08-22T11:22:59.703Z,1.63
2022-08-22T11:25:43.606Z,1.75
2022-08-22T11:28:32.912Z,1.50
2022-08-22T11:31:19.765Z,1.45
2022-08-22T11:34:20.559Z,1.33
2022-08-22T11:37:00.975Z,1.42
2022-08-22T11:39:45.289Z,1.67
2022-08-22T11:42:47.462Z,2.00
2022-08-22T11:45:25.690Z,1.73
2022-08-22T11:48:06.912Z,1.33
2022-08-22T11:51:13.293Z,1.70
2022-08-22T11:53:45.344Z,2.00
2022-08-22T11:56:27.356Z,1.98
2022-08-22T11:59:07.268Z,3.58
2022-08-22T12:01:52.798Z,2.50
2022-08-22T12:04:45.986Z,2.03
2022-08-22T12:07:36.314Z,1.77
2022-08-22T12:10:16.589Z,2.38
2022-08-22T12:12:55.441Z,2.50
2022-08-22T12:15:27.076Z,1.67
2022-08-22T12:18:27.146Z,2.22
2022-08-22T12:21:17.908Z,2.33
2022-08-22T12:24:11.337Z,1.73
2022-08-22T12:27:11.652Z,1.75
2022-08-22T12:29:45.378Z,1.58
2022-08-22T12:33:00.749Z,1.90
2022-08-22T12:35:49.515Z,1.80
2022-08-22T12:41:34.997Z,1.75
2022-08-22T12:44:16.402Z,1.73
2022-08-22T12:47:05.897Z,2.13
2022-08-22T12:50:02.059Z,3.95
2022-08-22T12:52:57.815Z,1.90
2022-08-22T12:55:57.013Z,1.52
2022-08-22T12:58:53.709Z,1.73
2022-08-22T13:01:24.353Z,1.92
2022-08-22T13:04:04.907Z,2.03
2022-08-22T13:06:37.926Z,1.92
2022-08-22T13:09:19.595Z,1.73
2022-08-22T13:11:54.483Z,1.88
2022-08-22T13:14:27.766Z,1.75
2022-08-22T13:16:58.961Z,1.83
2022-08-22T13:19:32.274Z,1.92
2022-08-22T13:22:03.867Z,2.63
2022-08-22T13:24:39.456Z,1.75
2022-08-22T13:28:03.417Z,1.85
2022-08-22T13:30:37.670Z,1.75
2022-08-22T13:33:13.763Z,2.80
2022-08-22T13:36:20.247Z,2.90
2022-08-22T13:38:58.346Z,4.05
2022-08-22T13:41:32.605Z,2.50
2022-08-22T13:44:05.208Z,2.38
2022-08-22T13:46:35.471Z,2.03
2022-08-22T13:49:07.130Z,1.65
2022-08-22T13:51:48.530Z,1.63
2022-08-22T13:54:15.451Z,1.58
2022-08-22T13:57:03.915Z,1.42
2022-08-22T13:59:52.526Z,1.42
2022-08-22T14:02:37.474Z,1.60
2022-08-22T14:05:11.311Z,1.83
2022-08-22T14:07:56.838Z,1.73
2022-08-22T14:10:30.578Z,1.45
2022-08-22T14:12:57.736Z,1.85
2022-08-22T14:15:44.483Z,2.50
2022-08-22T14:18:31.603Z,2.00
2022-08-22T14:21:40.920Z,2.47
2022-08-22T14:24:25.466Z,2.35
2022-08-22T14:39:56.804Z,0.68
2022-08-22T14:42:29.547Z,0.63
2022-08-22T14:45:11.503Z,0.63
2022-08-22T14:47:55.266Z,0.55
2022-08-22T14:50:46.167Z,1.52
2022-08-22T14:53:37.102Z,1.92
2022-08-22T14:56:18.454Z,1.25
2022-08-22T14:59:03.009Z,0.55
2022-08-22T15:01:32.966Z,1.35
2022-08-22T15:06:57.933Z,0.65
2022-08-22T15:09:44.204Z,0.75
2022-08-22T15:12:34.548Z,1.02
2022-08-22T15:15:12.772Z,0.82
2022-08-22T15:17:51.006Z,0.57
2022-08-22T15:20:31.316Z,0.77
2022-08-22T15:23:15.567Z,0.80
2022-08-22T15:25:47.038Z,0.90
2022-08-22T15:28:20.136Z,0.68
2022-08-22T15:31:03.739Z,1.13
2022-08-22T15:33:43.306Z,0.82
2022-08-22T15:36:24.577Z,1.25
2022-08-22T15:39:28.283Z,1.27
2022-08-22T15:41:56.936Z,1.27
2022-08-22T15:44:32.938Z,1.05
2022-08-22T15:50:06.403Z,1.02
2022-08-22T15:53:13.493Z,0.68
2022-08-22T15:56:06.780Z,0.82
2022-08-22T15:58:39.841Z,2.03
2022-08-22T16:01:22.439Z,1.80
2022-08-22T16:04:06.440Z,1.48
2022-08-22T16:06:55.261Z,1.38
2022-08-22T16:12:26.376Z,1.25
2022-08-22T16:17:29.123Z,1.02
2022-08-22T16:20:08.051Z,1.15
2022-08-22T16:22:56.450Z,1.17
2022-08-22T16:25:45.484Z,1.10
2022-08-22T16:28:57.372Z,1.52
2022-08-22T16:31:21.323Z,1.42
2022-08-22T16:33:48.461Z,1.48
2022-08-22T16:36:41.036Z,1.17
2022-08-22T16:39:44.869Z,1.02
2022-08-22T16:42:21.953Z,1.10
2022-08-22T16:45:05.299Z,0.93
2022-08-22T16:47:41.594Z,0.75
2022-08-22T16:50:23.412Z,1.15
2022-08-22T16:52:58.785Z,1.25
2022-08-22T16:55:31.470Z,0.77
2022-08-22T16:58:44.691Z,1.08
2022-08-22T17:01:58.646Z,1.05
2022-08-22T17:04:33.598Z,1.20
2022-08-22T17:07:03.634Z,1.35
2022-08-22T17:09:54.522Z,2.60
2022-08-22T17:12:27.002Z,1.77
2022-08-22T17:15:36.688Z,1.50
2022-08-22T17:18:40.726Z,2.03
2022-08-22T17:21:18.819Z,1.98
2022-08-22T17:24:31.824Z,1.77
2022-08-22T17:27:35.113Z,1.60
2022-08-22T17:30:01.984Z,1.95
2022-08-22T17:32:42.171Z,1.60
2022-08-22T17:35:25.050Z,2.30
2022-08-22T17:40:56.983Z,2.00
2022-08-22T17:43:48.701Z,1.33
2022-08-22T17:46:25.234Z,2.08
2022-08-22T17:49:15.617Z,1.83
2022-08-22T17:51:48.612Z,1.83
2022-08-22T17:54:32.164Z,2.35
2022-08-22T17:57:05.724Z,2.42
2022-08-22T17:59:47.192Z,1.95
2022-08-22T18:02:33.682Z,2.72
2022-08-22T18:05:03.623Z,2.53
2022-08-22T18:07:48.509Z,1.95
2022-08-22T18:10:15.402Z,2.38
2022-08-22T18:12:56.052Z,2.25
2022-08-22T18:15:30.167Z,3.33
2022-08-22T18:18:05.491Z,2.15
2022-08-22T18:20:46.498Z,2.78
2022-08-22T18:23:49.659Z,3.60
2022-08-22T18:26:58.526Z,2.83
2022-08-22T18:29:48.468Z,3.08
2022-08-22T18:32:59.544Z,3.25
2022-08-22T18:35:33.973Z,3.58
2022-08-22T18:38:20.245Z,3.38
2022-08-22T18:40:54.655Z,2.97
2022-08-22T18:43:39.542Z,3.17
2022-08-22T18:46:37.473Z,4.50
2022-08-22T18:49:18.051Z,2.72
2022-08-22T18:52:05.431Z,3.35
2022-08-22T18:54:45.094Z,2.63
2022-08-22T18:57:38.725Z,3.13
2022-08-22T19:00:36.548Z,3.97
2022-08-22T19:03:25.294Z,3.28
2022-08-22T19:06:05.923Z,2.67
2022-08-22T19:08:53.751Z,2.60
2022-08-22T19:11:43.983Z,2.80
2022-08-22T19:14:26.593Z,6.15
2022-08-22T19:17:05.456Z,3.08
2022-08-22T19:20:22.094Z,4.10
2022-08-22T19:22:51.241Z,3.05
2022-08-22T19:25:26.256Z,2.72
2022-08-22T19:28:11.486Z,3.85
2022-08-22T19:30:48.401Z,3.25
2022-08-22T19:33:19.621Z,3.15
2022-08-22T19:35:56.451Z,3.45
2022-08-22T19:39:23.128Z,3.42
2022-08-22T19:41:54.299Z,3.25
2022-08-22T19:44:21.124Z,3.38
2022-08-22T19:47:02.565Z,3.80
2022-08-22T19:49:35.813Z,3.63
2022-08-22T19:52:12.210Z,3.45
2022-08-22T19:54:48.080Z,3.97
2022-08-22T19:57:41.325Z,3.38
2022-08-22T20:00:22.840Z,3.88
2022-08-22T20:03:11.921Z,4.13
2022-08-22T20:05:47.440Z,4.57
2022-08-22T20:08:57.047Z,3.88
2022-08-22T20:11:38.825Z,4.40
2022-08-22T20:14:26.564Z,4.35
2022-08-22T20:17:11.912Z,5.03
2022-08-22T20:22:39.385Z,4.57
2022-08-22T20:25:15.731Z,4.15
2022-08-22T20:28:05.392Z,4.55
2022-08-22T20:30:45.454Z,4.47
2022-08-22T20:33:23.489Z,4.28
2022-08-22T20:35:56.183Z,4.63
2022-08-22T20:38:35.930Z,4.22
2022-08-22T20:41:13.502Z,4.78
2022-08-22T20:43:49.938Z,4.95
2022-08-22T20:46:53.217Z,6.07
2022-08-22T20:49:28.948Z,5.40
2022-08-22T20:52:03.033Z,4.90
2022-08-22T20:54:37.995Z,4.85
2022-08-22T20:57:32.034Z,5.30
2022-08-22T21:00:12.511Z,5.15
2022-08-22T21:02:41.632Z,4.82
2022-08-22T21:05:21.226Z,5.38
2022-08-22T21:08:12.664Z,4.93
2022-08-22T21:10:59.312Z,6.00
2022-08-22T21:13:36.324Z,5.18
2022-08-22T21:16:31.447Z,5.50
2022-08-22T21:19:01.628Z,5.45
2022-08-22T21:21:33.544Z,5.30
2022-08-22T21:24:07.051Z,5.38
2022-08-22T21:26:46.582Z,5.63
2022-08-22T21:29:13.430Z,5.90
2022-08-22T21:31:47.341Z,5.60
2022-08-22T21:34:28.821Z,5.43
2022-08-22T21:37:00.779Z,5.53
2022-08-22T21:39:34.610Z,6.53
2022-08-22T21:42:01.500Z,5.70
2022-08-22T21:44:31.393Z,5.28
2022-08-22T21:47:17.128Z,6.13
2022-08-22T21:50:13.258Z,5.40
2022-08-22T21:52:56.542Z,5.75
2022-08-22T21:55:28.125Z,5.25
2022-08-22T21:58:09.746Z,5.93
2022-08-22T22:00:50.584Z,5.38
2022-08-22T22:03:23.333Z,6.97
2022-08-22T22:05:52.908Z,6.47
2022-08-22T22:08:19.859Z,6.13
2022-08-22T22:10:49.133Z,7.20
2022-08-22T22:13:17.268Z,6.47
2022-08-22T22:15:46.693Z,6.35
2022-08-22T22:18:16.137Z,6.22
2022-08-22T22:20:44.442Z,6.50
2022-08-22T22:23:11.629Z,5.97
2022-08-22T22:25:42.125Z,7.07
2022-08-22T22:28:16.994Z,6.88
2022-08-22T22:30:45.549Z,6.53
2022-08-22T22:33:12.545Z,6.63
2022-08-22T22:35:40.772Z,6.88
2022-08-22T22:38:08.571Z,7.10
2022-08-22T22:40:35.939Z,7.05
2022-08-22T22:43:03.294Z,7.25
2022-08-22T22:45:30.242Z,6.63
2022-08-22T22:47:57.208Z,6.55
2022-08-22T22:50:24.617Z,7.15
2022-08-22T22:52:51.560Z,6.82
2022-08-22T22:55:24.905Z,6.55
2022-08-22T22:57:59.088Z,6.65
2022-08-22T23:00:31.747Z,6.38
2022-08-22T23:03:00.963Z,6.60
2022-08-22T23:05:31.532Z,6.53
2022-08-22T23:07:59.281Z,6.25
2022-08-22T23:10:27.696Z,7.05
2022-08-22T23:12:54.622Z,6.63
2022-08-22T23:15:21.646Z,6.97
2022-08-22T23:17:48.805Z,6.38
2022-08-22T23:20:15.756Z,6.78
2022-08-22T23:22:45.403Z,6.80
2022-08-22T23:25:12.657Z,6.95
2022-08-22T23:27:39.806Z,7.22
2022-08-22T23:30:11.107Z,6.90
2022-08-22T23:32:38.088Z,7.55
2022-08-22T23:35:05.970Z,7.10
2022-08-22T23:37:32.968Z,6.70
2022-08-22T23:40:00.014Z,6.68
2022-08-22T23:42:26.985Z,6.95
2022-08-22T23:44:53.915Z,7.13
2022-08-22T23:47:20.873Z,6.63
2022-08-22T23:49:47.782Z,7.85
2022-08-22T23:52:14.653Z,7.20
2022-08-22T23:54:41.711Z,6.25
2022-08-22T23:57:12.132Z,6.80
2022-08-22T23:59:46.455Z,7.43
